Terminal Aerodrome Forecast
Issued by NWS

Home | Current Version | Previous Version | Text Only | Print | Product List | Glossary On
Versions: 1 2 3 4 5 6 7 8 9 10 11 12 13 14 15 16 17 18
000
FTUS43 KILX 250500
TAFBMI
TAF
KBMI 250520Z 2506/2606 17006KT P6SM BKN100
     FM251200 09007KT P6SM VCSH OVC060
     FM251300 04007KT 3SM -RA BR OVC015
      TEMPO 2516/2518 3SM -RAPL BR OVC008
     FM251800 03014G20KT 1SM -SN OVC008
     FM252300 01015G23KT 3SM -SN BR OVC012
     FM260100 01012KT 5SM BR OVC025=

USA.gov is the U.S. government's official web portal to all federal, state and local government web resources and services.